createdAt,value
2018-06-20T00:01:46.541Z,14.43
2018-06-20T00:04:15.412Z,17.80
2018-06-20T00:06:44.311Z,14.53
2018-06-20T00:09:13.225Z,13.33
2018-06-20T00:11:42.153Z,19.03
2018-06-20T00:14:11.051Z,16.40
2018-06-20T00:16:40.008Z,14.40
2018-06-20T00:19:08.937Z,13.80
2018-06-20T00:21:37.916Z,13.27
2018-06-20T00:24:06.817Z,14.90
2018-06-20T00:26:35.721Z,18.30
2018-06-20T00:29:04.639Z,15.67
2018-06-20T00:31:33.585Z,16.10
2018-06-20T00:34:02.531Z,17.37
2018-06-20T00:36:31.494Z,15.67
2018-06-20T00:39:00.361Z,18.27
2018-06-20T00:41:29.268Z,18.93
2018-06-20T00:43:58.161Z,15.40
2018-06-20T00:46:27.374Z,16.27
2018-06-20T00:48:56.269Z,17.90
2018-06-20T00:51:25.212Z,16.50
2018-06-20T00:53:54.117Z,15.00
2018-06-20T00:56:28.325Z,20.83
2018-06-20T00:58:57.233Z,23.53
2018-06-20T01:01:26.168Z,18.37
2018-06-20T01:03:55.160Z,17.20
2018-06-20T01:06:24.036Z,19.80
2018-06-20T01:08:57.186Z,13.57
2018-06-20T01:11:26.731Z,16.60
2018-06-20T01:13:55.857Z,14.90
2018-06-20T01:16:24.856Z,13.60
2018-06-20T01:18:53.783Z,14.30
2018-06-20T01:21:22.684Z,16.60
2018-06-20T01:23:51.579Z,15.37
2018-06-20T01:26:20.431Z,18.53
2018-06-20T01:28:49.416Z,19.97
2018-06-20T01:31:18.316Z,18.87
2018-06-20T01:33:47.156Z,18.73
2018-06-20T01:36:16.110Z,15.43
2018-06-20T01:38:45.009Z,13.87
2018-06-20T01:41:13.910Z,13.73
2018-06-20T01:43:42.796Z,15.73
2018-06-20T01:46:11.692Z,20.40
2018-06-20T01:48:40.658Z,14.07
2018-06-20T01:51:09.580Z,13.63
2018-06-20T01:53:38.524Z,14.40
2018-06-20T01:56:07.595Z,19.37
2018-06-20T01:58:36.548Z,17.53
2018-06-20T02:01:05.449Z,21.13
2018-06-20T02:03:34.422Z,15.07
2018-06-20T02:06:03.339Z,15.53
2018-06-20T02:08:32.280Z,15.60
2018-06-20T02:11:01.168Z,13.93
2018-06-20T02:13:30.148Z,12.70
2018-06-20T02:15:59.470Z,15.53
2018-06-20T02:18:28.357Z,17.87
2018-06-20T02:20:57.225Z,12.10
2018-06-20T02:23:26.132Z,24.40
2018-06-20T02:25:55.087Z,13.70
2018-06-20T02:28:24.001Z,13.80
2018-06-20T02:30:52.885Z,14.13
2018-06-20T02:33:21.804Z,22.60
2018-06-20T02:35:50.723Z,18.47
2018-06-20T02:38:19.646Z,10.90
2018-06-20T02:40:48.485Z,12.80
2018-06-20T02:43:17.396Z,16.30
2018-06-20T02:45:46.318Z,10.90
2018-06-20T02:48:15.282Z,11.20
2018-06-20T02:50:44.210Z,16.13
2018-06-20T02:53:13.141Z,13.93
2018-06-20T02:55:42.079Z,11.30
2018-06-20T02:58:10.916Z,15.70
2018-06-20T03:00:39.846Z,18.60
2018-06-20T03:03:08.750Z,13.90
2018-06-20T03:05:37.619Z,11.10
2018-06-20T03:08:06.564Z,11.27
2018-06-20T03:10:35.470Z,13.83
2018-06-20T03:13:04.425Z,13.60
2018-06-20T03:15:33.255Z,17.67
2018-06-20T03:18:02.139Z,16.53
2018-06-20T03:20:31.094Z,16.97
2018-06-20T03:23:00.025Z,13.57
2018-06-20T03:25:28.917Z,17.00
2018-06-20T03:27:57.756Z,14.80
2018-06-20T03:30:26.645Z,10.13
2018-06-20T03:32:56.225Z,13.80
2018-06-20T03:35:25.146Z,11.57
2018-06-20T03:37:54.058Z,13.17
2018-06-20T03:40:22.962Z,14.60
2018-06-20T03:42:51.954Z,10.50
2018-06-20T03:45:20.878Z,9.20
2018-06-20T03:47:49.873Z,10.30
2018-06-20T03:50:18.818Z,11.60
2018-06-20T03:52:47.742Z,13.80
2018-06-20T03:55:16.677Z,10.87
2018-06-20T03:57:45.555Z,13.13
2018-06-20T04:00:14.436Z,12.20
2018-06-20T04:02:43.829Z,11.70
2018-06-20T04:05:13.069Z,9.47
2018-06-20T04:07:42.328Z,10.23
2018-06-20T04:10:11.189Z,12.53
2018-06-20T04:12:40.101Z,12.17
2018-06-20T04:15:09.034Z,11.77
2018-06-20T04:17:37.976Z,9.07
2018-06-20T04:20:06.836Z,10.70
2018-06-20T04:22:35.769Z,8.50
2018-06-20T04:25:04.703Z,10.50
2018-06-20T04:27:33.650Z,9.03
2018-06-20T04:30:02.571Z,9.57
2018-06-20T04:32:31.515Z,9.43
2018-06-20T04:35:00.385Z,9.87
2018-06-20T04:37:29.316Z,11.70
2018-06-20T04:39:58.181Z,10.87
2018-06-20T04:42:27.162Z,9.37
2018-06-20T04:44:56.046Z,12.30
2018-06-20T04:47:24.993Z,12.87
2018-06-20T04:49:53.849Z,15.63
2018-06-20T04:52:23.220Z,11.20
2018-06-20T04:54:53.234Z,12.53
2018-06-20T04:57:22.081Z,9.37
2018-06-20T04:59:51.074Z,10.87
2018-06-20T05:02:19.994Z,9.43
2018-06-20T05:04:48.945Z,10.63
2018-06-20T05:07:18.022Z,11.70
2018-06-20T05:09:46.912Z,9.50
2018-06-20T05:12:15.797Z,10.20
2018-06-20T05:14:44.676Z,11.10
2018-06-20T05:17:13.665Z,10.50
2018-06-20T05:19:42.519Z,9.67
2018-06-20T05:22:11.376Z,10.03
2018-06-20T05:24:40.268Z,12.40
2018-06-20T05:27:09.128Z,10.80
2018-06-20T05:29:38.098Z,13.70
2018-06-20T05:32:08.008Z,17.27
2018-06-20T05:34:36.922Z,14.40
2018-06-20T05:37:05.822Z,13.67
2018-06-20T05:39:34.759Z,13.77
2018-06-20T05:42:03.707Z,11.43
2018-06-20T05:44:32.573Z,9.20
2018-06-20T05:47:01.504Z,16.30
2018-06-20T05:49:30.453Z,10.70
2018-06-20T05:51:59.429Z,21.23
2018-06-20T05:54:28.788Z,14.00
2018-06-20T05:56:57.700Z,14.30
2018-06-20T05:59:26.657Z,10.70
2018-06-20T06:01:55.742Z,9.93
2018-06-20T06:04:24.662Z,19.50
2018-06-20T06:06:53.572Z,19.90
2018-06-20T06:09:22.501Z,14.40
2018-06-20T06:11:51.389Z,14.87
2018-06-20T06:14:20.283Z,14.87
2018-06-20T06:16:49.298Z,13.93
2018-06-20T06:19:18.130Z,13.80
2018-06-20T06:21:47.004Z,12.10
2018-06-20T06:24:16.087Z,10.43
2018-06-20T06:26:45.066Z,11.37
2018-06-20T06:29:13.927Z,12.40
2018-06-20T06:31:42.940Z,11.23
2018-06-20T06:34:12.085Z,20.40
2018-06-20T06:36:41.002Z,14.93
2018-06-20T06:39:11.285Z,16.20
2018-06-20T06:41:40.378Z,16.13
2018-06-20T06:44:09.326Z,17.27
2018-06-20T06:46:38.155Z,12.77
2018-06-20T06:49:07.121Z,12.83
2018-06-20T06:51:36.013Z,9.93
2018-06-20T06:54:04.911Z,15.00
2018-06-20T06:56:33.840Z,11.70
2018-06-20T06:59:02.751Z,13.00
2018-06-20T07:01:31.705Z,11.10
2018-06-20T07:04:00.604Z,11.10
2018-06-20T07:06:29.531Z,14.17
2018-06-20T07:08:58.444Z,10.00
2018-06-20T07:11:27.319Z,13.13
2018-06-20T07:13:56.237Z,10.70
2018-06-20T07:16:25.117Z,11.13
2018-06-20T07:18:54.032Z,12.20
2018-06-20T07:21:22.986Z,12.80
2018-06-20T07:23:51.900Z,13.47
2018-06-20T07:26:20.790Z,10.00
2018-06-20T07:28:49.713Z,12.80
2018-06-20T07:31:18.557Z,13.00
2018-06-20T07:33:47.502Z,11.70
2018-06-20T07:36:16.554Z,15.27
2018-06-20T07:38:45.336Z,10.70
2018-06-20T07:41:14.281Z,12.13
2018-06-20T07:43:43.217Z,13.27
2018-06-20T07:46:12.133Z,14.70
2018-06-20T07:48:41.019Z,15.87
2018-06-20T07:51:10.014Z,17.47
2018-06-20T07:53:38.964Z,17.90
2018-06-20T07:56:07.910Z,15.30
2018-06-20T07:58:42.349Z,12.67
2018-06-20T08:01:21.803Z,13.83
2018-06-20T08:03:56.316Z,12.73
2018-06-20T08:06:30.706Z,10.90
2018-06-20T08:09:05.845Z,13.87
2018-06-20T08:12:38.987Z,14.87
2018-06-20T08:15:13.275Z,13.00
2018-06-20T08:17:47.641Z,14.90
2018-06-20T08:20:20.929Z,12.80
2018-06-20T08:22:49.833Z,14.60
2018-06-20T08:25:18.773Z,12.13
2018-06-20T08:27:47.657Z,15.90
2018-06-20T08:30:16.561Z,15.43
2018-06-20T08:32:45.457Z,14.90
2018-06-20T08:35:14.400Z,12.57
2018-06-20T08:37:43.321Z,25.13
2018-06-20T08:40:12.172Z,24.17
2018-06-20T08:42:41.065Z,12.57
2018-06-20T08:45:09.984Z,20.20
2018-06-20T08:47:38.858Z,19.40
2018-06-20T08:50:07.770Z,18.07
2018-06-20T08:52:36.645Z,16.67
2018-06-20T08:55:05.700Z,22.73
2018-06-20T08:57:34.633Z,15.20
2018-06-20T09:00:03.626Z,14.23
2018-06-20T09:02:32.546Z,16.20
2018-06-20T09:05:06.880Z,14.43
2018-06-20T09:07:41.306Z,18.27
2018-06-20T09:10:15.631Z,20.73
2018-06-20T09:12:50.008Z,18.87
2018-06-20T09:15:24.482Z,19.70
2018-06-20T09:17:58.912Z,21.00
2018-06-20T09:20:27.802Z,13.30
2018-06-20T09:22:56.685Z,13.50
2018-06-20T09:25:25.617Z,15.57
2018-06-20T09:27:54.541Z,13.00
2018-06-20T09:30:23.465Z,19.67
2018-06-20T09:32:52.389Z,14.90
2018-06-20T09:35:21.299Z,15.70
2018-06-20T09:37:50.148Z,20.77
2018-06-20T09:40:19.041Z,20.07
2018-06-20T09:42:47.945Z,19.13
2018-06-20T09:45:16.785Z,16.63
2018-06-20T09:47:45.668Z,15.00
2018-06-20T09:50:19.999Z,16.50
2018-06-20T09:52:48.857Z,22.73
2018-06-20T09:55:17.802Z,16.00
2018-06-20T09:57:46.792Z,15.70
2018-06-20T10:00:21.132Z,20.43
2018-06-20T10:02:55.574Z,20.40
2018-06-20T10:05:29.965Z,18.27
2018-06-20T10:08:04.243Z,16.90
2018-06-20T10:10:38.557Z,16.30
2018-06-20T10:13:13.203Z,15.60
2018-06-20T10:15:42.103Z,22.00
2018-06-20T10:18:11.038Z,19.67
2018-06-20T10:20:39.871Z,16.00
2018-06-20T10:23:08.800Z,19.90
2018-06-20T10:25:37.701Z,18.60
2018-06-20T10:28:06.593Z,21.57
2018-06-20T10:30:35.481Z,17.80
2018-06-20T10:33:04.671Z,17.40
2018-06-20T10:35:33.564Z,17.53
2018-06-20T10:38:02.535Z,19.10
2018-06-20T10:40:31.433Z,18.00
2018-06-20T10:43:00.336Z,18.70
2018-06-20T10:45:34.482Z,15.17
2018-06-20T10:48:07.585Z,18.23
2018-06-20T10:50:36.477Z,20.53
2018-06-20T10:53:05.417Z,16.17
2018-06-20T10:55:37.334Z,16.87
2018-06-20T10:58:12.632Z,20.33
2018-06-20T11:00:47.168Z,18.70
2018-06-20T11:03:21.485Z,16.43
2018-06-20T11:05:55.986Z,18.10
2018-06-20T11:08:30.218Z,18.17
2018-06-20T11:11:04.614Z,15.70
2018-06-20T11:13:33.483Z,14.83
2018-06-20T11:16:02.384Z,15.80
2018-06-20T11:18:32.573Z,15.80
2018-06-20T11:21:01.488Z,18.20
2018-06-20T11:23:30.408Z,14.10
2018-06-20T11:25:59.330Z,15.90
2018-06-20T11:28:28.183Z,16.07
2018-06-20T11:30:57.076Z,16.90
2018-06-20T11:33:26.049Z,18.60
2018-06-20T11:35:54.945Z,13.60
2018-06-20T11:38:23.883Z,14.73
2018-06-20T11:40:52.832Z,13.00
2018-06-20T11:43:21.786Z,14.50
2018-06-20T11:45:56.189Z,14.13
2018-06-20T11:48:25.092Z,13.83
2018-06-20T11:50:54.044Z,11.60
2018-06-20T11:53:22.908Z,17.87
2018-06-20T11:55:51.863Z,15.57
2018-06-20T11:58:26.264Z,14.73
2018-06-20T12:01:00.467Z,15.40
2018-06-20T12:03:34.761Z,12.20
2018-06-20T12:06:08.973Z,13.70
2018-06-20T12:08:43.276Z,21.60
2018-06-20T12:11:17.813Z,13.30
2018-06-20T12:13:52.111Z,15.03
2018-06-20T12:16:24.080Z,13.20
2018-06-20T12:18:58.351Z,17.40
2018-06-20T12:21:32.605Z,13.37
2018-06-20T12:24:06.807Z,14.30
2018-06-20T12:26:41.074Z,16.63
2018-06-20T12:29:15.547Z,12.90
2018-06-20T12:31:49.785Z,13.20
2018-06-20T12:34:24.257Z,13.10
2018-06-20T12:36:58.578Z,23.00
2018-06-20T12:39:26.748Z,15.83
2018-06-20T12:42:01.029Z,19.73
2018-06-20T12:44:35.461Z,14.57
2018-06-20T12:47:08.328Z,11.93
2018-06-20T12:49:40.955Z,18.60
2018-06-20T12:52:09.872Z,16.40
2018-06-20T12:54:39.728Z,22.57
2018-06-20T12:57:08.673Z,12.70
2018-06-20T12:59:37.557Z,14.67
2018-06-20T13:02:06.538Z,12.87
2018-06-20T13:04:35.382Z,13.60
2018-06-20T13:07:04.326Z,16.53
2018-06-20T13:09:33.183Z,12.23
2018-06-20T13:12:02.084Z,12.83
2018-06-20T13:14:31.049Z,12.70
2018-06-20T13:17:00.033Z,13.93
2018-06-20T13:19:28.994Z,15.27
2018-06-20T13:21:57.941Z,13.10
2018-06-20T13:24:26.891Z,11.60
2018-06-20T13:26:55.918Z,11.30
2018-06-20T13:29:24.866Z,12.87
2018-06-20T13:31:59.556Z,22.37
2018-06-20T13:34:34.146Z,11.47
2018-06-20T13:37:08.521Z,12.07
2018-06-20T13:39:42.968Z,11.57
2018-06-20T13:42:19.170Z,10.57
2018-06-20T13:44:48.475Z,11.57
2018-06-20T13:47:22.957Z,11.77
2018-06-20T13:49:56.294Z,17.87
2018-06-20T13:52:25.446Z,14.23
2018-06-20T13:54:54.607Z,16.10
2018-06-20T13:57:23.701Z,15.03
2018-06-20T13:59:52.891Z,14.40
2018-06-20T14:02:22.022Z,16.37
2018-06-20T14:04:51.172Z,11.70
2018-06-20T14:07:20.297Z,14.93
2018-06-20T14:09:49.427Z,13.93
2018-06-20T14:12:18.569Z,13.87
2018-06-20T14:14:47.746Z,11.43
2018-06-20T14:17:16.940Z,12.43
2018-06-20T14:19:51.112Z,12.73
2018-06-20T14:22:20.285Z,13.33
2018-06-20T14:24:49.424Z,11.57
2018-06-20T14:27:18.599Z,15.20
2018-06-20T14:29:47.794Z,15.17
2018-06-20T14:32:22.466Z,10.73
2018-06-20T14:34:56.923Z,13.57
2018-06-20T14:37:31.354Z,16.90
2018-06-20T14:40:05.988Z,10.87
2018-06-20T14:42:40.385Z,11.87
2018-06-20T14:45:14.710Z,12.63
2018-06-20T14:47:43.847Z,11.60
2018-06-20T14:50:13.005Z,11.50
2018-06-20T14:52:42.265Z,9.57
2018-06-20T14:55:11.396Z,9.93
2018-06-20T14:57:40.529Z,12.40
2018-06-20T15:00:09.627Z,10.30
2018-06-20T15:02:38.830Z,10.07
2018-06-20T15:05:07.964Z,11.37
2018-06-20T15:07:37.078Z,8.50
2018-06-20T15:10:06.200Z,8.30
2018-06-20T15:12:35.437Z,8.47
2018-06-20T15:15:04.572Z,7.53
2018-06-20T15:17:33.791Z,7.83
2018-06-20T15:20:02.958Z,8.43
2018-06-20T15:22:37.477Z,10.30
2018-06-20T15:25:06.638Z,10.90
2018-06-20T15:27:41.235Z,9.63
2018-06-20T15:30:15.774Z,10.80
2018-06-20T15:32:50.180Z,10.50
2018-06-20T15:35:24.701Z,15.70
2018-06-20T15:37:59.257Z,7.20
2018-06-20T15:40:28.451Z,10.83
2018-06-20T15:42:57.598Z,12.73
2018-06-20T15:45:26.769Z,7.33
2018-06-20T15:47:55.913Z,7.90
2018-06-20T15:50:25.075Z,10.70
2018-06-20T15:52:54.224Z,9.70
2018-06-20T15:55:23.354Z,8.00
2018-06-20T15:57:52.458Z,9.13
2018-06-20T16:00:21.639Z,8.90
2018-06-20T16:02:50.747Z,10.03
2018-06-20T16:05:19.918Z,7.50
2018-06-20T16:07:49.301Z,11.63
2018-06-20T16:10:18.955Z,7.90
2018-06-20T16:12:48.313Z,12.70
2018-06-20T16:15:18.145Z,11.83
2018-06-20T16:17:47.320Z,13.23
2018-06-20T16:20:21.765Z,8.07
2018-06-20T16:22:56.269Z,9.83
2018-06-20T16:25:30.652Z,10.63
2018-06-20T16:28:05.071Z,8.63
2018-06-20T16:30:39.213Z,10.50
2018-06-20T16:33:08.493Z,10.10
2018-06-20T16:35:38.204Z,12.80
2018-06-20T16:38:07.754Z,10.60
2018-06-20T16:40:37.006Z,8.20
2018-06-20T16:43:06.218Z,8.80
2018-06-20T16:45:35.345Z,8.57
2018-06-20T16:48:04.439Z,13.40
2018-06-20T16:50:33.607Z,8.67
2018-06-20T16:53:02.775Z,11.17
2018-06-20T16:55:31.978Z,10.00
2018-06-20T16:58:01.105Z,13.43
2018-06-20T17:00:30.229Z,12.70
2018-06-20T17:02:59.360Z,11.87
2018-06-20T17:05:28.497Z,9.93
2018-06-20T17:07:57.662Z,8.60
2018-06-20T17:10:26.757Z,9.60
2018-06-20T17:13:01.041Z,9.30
2018-06-20T17:15:35.577Z,15.17
2018-06-20T17:18:09.958Z,9.63
2018-06-20T17:20:44.417Z,11.43
2018-06-20T17:23:19.004Z,9.37
2018-06-20T17:25:48.230Z,11.37
2018-06-20T17:28:17.398Z,9.53
2018-06-20T17:30:46.553Z,10.63
2018-06-20T17:33:15.644Z,9.07
2018-06-20T17:35:44.806Z,15.10
2018-06-20T17:38:13.965Z,9.87
2018-06-20T17:40:43.175Z,11.00
2018-06-20T17:43:12.330Z,12.90
2018-06-20T17:45:41.397Z,8.93
2018-06-20T17:48:10.549Z,14.40
2018-06-20T17:50:39.726Z,9.70
2018-06-20T17:53:08.918Z,9.70
2018-06-20T17:55:38.097Z,11.00
2018-06-20T17:58:07.303Z,9.00
2018-06-20T18:00:41.917Z,12.43
2018-06-20T18:03:11.030Z,10.77
2018-06-20T18:05:45.550Z,11.50
2018-06-20T18:08:20.131Z,11.37
2018-06-20T18:10:54.640Z,11.20
2018-06-20T18:13:29.063Z,15.60
2018-06-20T18:16:03.522Z,14.10
2018-06-20T18:18:32.621Z,11.50
2018-06-20T18:21:01.795Z,16.50
2018-06-20T18:23:30.994Z,12.63
2018-06-20T18:26:00.150Z,13.60
2018-06-20T18:28:29.274Z,15.10
2018-06-20T18:30:58.424Z,17.17
2018-06-20T18:33:27.518Z,14.50
2018-06-20T18:35:56.647Z,13.03
2018-06-20T18:38:25.864Z,17.40
2018-06-20T18:40:55.000Z,15.67
2018-06-20T18:43:24.243Z,22.20
2018-06-20T18:45:53.388Z,14.03
2018-06-20T18:48:27.091Z,17.20
2018-06-20T18:50:57.146Z,17.53
2018-06-20T18:53:26.404Z,17.50
2018-06-20T18:55:55.557Z,24.90
2018-06-20T18:58:29.969Z,26.37
2018-06-20T19:01:04.598Z,17.03
2018-06-20T19:03:39.162Z,18.40
2018-06-20T19:06:13.639Z,23.13
2018-06-20T19:08:48.259Z,18.60
2018-06-20T19:11:17.455Z,15.50
2018-06-20T19:13:46.726Z,17.13
2018-06-20T19:16:15.915Z,15.47
2018-06-20T19:18:45.070Z,15.90
2018-06-20T19:21:14.211Z,25.83
2018-06-20T19:23:43.331Z,16.10
2018-06-20T19:26:12.523Z,24.10
2018-06-20T19:28:41.693Z,16.20
2018-06-20T19:31:10.903Z,17.50
2018-06-20T19:33:40.071Z,17.90
2018-06-20T19:36:09.277Z,14.80
2018-06-20T19:38:38.467Z,18.50
2018-06-20T19:41:07.694Z,19.33
2018-06-20T19:43:41.051Z,16.13
2018-06-20T19:46:10.231Z,28.77
2018-06-20T19:48:39.411Z,23.93
2018-06-20T19:51:08.647Z,22.40
2018-06-20T19:53:37.799Z,25.50
2018-06-20T19:56:06.961Z,23.20
2018-06-20T19:58:36.216Z,20.60
2018-06-20T20:01:05.428Z,19.73
2018-06-20T20:03:34.639Z,16.90
2018-06-20T20:06:03.826Z,22.90
2018-06-20T20:08:33.032Z,21.27
2018-06-20T20:11:02.134Z,17.60
2018-06-20T20:13:31.346Z,23.67
2018-06-20T20:16:00.473Z,18.33
2018-06-20T20:18:29.619Z,16.00
2018-06-20T20:20:58.789Z,18.97
2018-06-20T20:23:27.944Z,15.67
2018-06-20T20:25:57.095Z,20.47
2018-06-20T20:28:26.275Z,18.33
2018-06-20T20:30:55.449Z,16.90
2018-06-20T20:33:24.685Z,21.63
2018-06-20T20:35:53.874Z,18.47
2018-06-20T20:38:23.077Z,25.50
2018-06-20T20:40:52.261Z,18.43
2018-06-20T20:43:21.377Z,20.23
2018-06-20T20:45:50.473Z,14.77
2018-06-20T20:48:19.673Z,18.83
2018-06-20T20:50:48.759Z,21.17
2018-06-20T20:53:17.924Z,16.00
2018-06-20T20:55:47.116Z,17.40
2018-06-20T20:58:16.349Z,18.27
2018-06-20T21:00:45.529Z,18.30
2018-06-20T21:03:14.637Z,19.57
2018-06-20T21:05:43.720Z,16.80
2018-06-20T21:08:12.910Z,20.33
2018-06-20T21:10:42.172Z,18.90
2018-06-20T21:13:11.270Z,20.10
2018-06-20T21:15:40.394Z,23.53
2018-06-20T21:18:09.577Z,17.87
2018-06-20T21:20:38.725Z,25.00
2018-06-20T21:23:07.832Z,22.20
2018-06-20T21:25:37.006Z,17.50
2018-06-20T21:28:06.195Z,19.33
2018-06-20T21:30:35.376Z,18.73
2018-06-20T21:33:04.563Z,19.90
2018-06-20T21:35:33.710Z,20.80
2018-06-20T21:38:02.889Z,25.80
2018-06-20T21:40:32.001Z,20.40
2018-06-20T21:43:01.153Z,25.20
2018-06-20T21:45:30.344Z,27.13
2018-06-20T21:47:59.517Z,35.33
2018-06-20T21:50:28.631Z,29.00
2018-06-20T21:52:57.802Z,23.37
2018-06-20T21:55:26.923Z,26.50
2018-06-20T21:58:01.364Z,27.53
2018-06-20T22:00:31.362Z,22.63
2018-06-20T22:03:00.476Z,32.40
2018-06-20T22:05:29.626Z,38.60
2018-06-20T22:07:58.749Z,24.33
2018-06-20T22:10:27.923Z,34.27
2018-06-20T22:12:57.102Z,20.30
2018-06-20T22:15:26.262Z,26.43
2018-06-20T22:17:55.365Z,22.10
2018-06-20T22:20:24.531Z,26.57
2018-06-20T22:22:53.691Z,28.13
2018-06-20T22:25:22.926Z,24.70
2018-06-20T22:27:52.131Z,25.47
2018-06-20T22:30:21.338Z,25.60
2018-06-20T22:32:50.510Z,25.77
2018-06-20T22:35:19.637Z,29.83
2018-06-20T22:37:48.900Z,32.87
2018-06-20T22:40:18.169Z,35.53
2018-06-20T22:42:47.403Z,23.80
2018-06-20T22:45:16.745Z,24.43
2018-06-20T22:47:46.044Z,25.60
2018-06-20T22:50:15.241Z,23.90
2018-06-20T22:52:44.483Z,21.30
2018-06-20T22:55:13.672Z,22.80
2018-06-20T22:57:43.580Z,19.70
2018-06-20T23:00:13.599Z,25.20
2018-06-20T23:02:42.847Z,22.07
2018-06-20T23:05:12.032Z,20.60
2018-06-20T23:07:41.353Z,24.80
2018-06-20T23:10:10.760Z,21.80
2018-06-20T23:12:40.592Z,18.93
2018-06-20T23:15:09.810Z,24.93
2018-06-20T23:17:39.070Z,25.50
2018-06-20T23:20:08.309Z,23.63
2018-06-20T23:22:37.770Z,23.43
2018-06-20T23:25:06.944Z,22.20
2018-06-20T23:27:36.192Z,25.87
2018-06-20T23:30:05.751Z,22.27
2018-06-20T23:32:35.006Z,21.40
2018-06-20T23:35:04.216Z,18.90
2018-06-20T23:37:33.642Z,23.20
2018-06-20T23:40:02.875Z,20.93
2018-06-20T23:42:32.102Z,21.17
2018-06-20T23:45:01.442Z,22.13
2018-06-20T23:47:30.736Z,21.50
2018-06-20T23:50:00.205Z,27.60
2018-06-20T23:52:29.522Z,23.40
2018-06-20T23:54:58.775Z,22.53
2018-06-20T23:57:28.110Z,22.07
2018-06-20T23:59:57.347Z,20.27
